createdAt,value
2023-03-13T00:00:07.396Z,12.20
2023-03-13T00:10:14.293Z,11.20
2023-03-13T00:20:20.130Z,8.10
2023-03-13T00:30:25.837Z,7.30
2023-03-13T00:40:31.922Z,7.10
2023-03-13T00:50:37.607Z,6.30
2023-03-13T01:00:43.127Z,5.70
2023-03-13T01:10:48.759Z,7.60
2023-03-13T01:20:55.548Z,6.30
2023-03-13T01:31:01.782Z,6.60
2023-03-13T01:41:09.033Z,6.70
2023-03-13T01:51:19.210Z,6.50
2023-03-13T02:01:26.846Z,6.20
2023-03-13T02:11:40.926Z,6.80
2023-03-13T02:21:56.624Z,8.70
2023-03-13T02:32:02.288Z,7.40
2023-03-13T02:42:08.861Z,7.20
2023-03-13T02:52:19.031Z,7.30
2023-03-13T03:02:25.167Z,9.50
2023-03-13T03:12:30.793Z,7.60
2023-03-13T03:22:38.588Z,6.90
2023-03-13T03:32:44.532Z,7.70
2023-03-13T03:42:50.494Z,7.30
2023-03-13T03:52:56.520Z,8.90
2023-03-13T04:03:02.389Z,8.30
2023-03-13T04:13:08.251Z,8.70
2023-03-13T04:23:13.899Z,7.40
2023-03-13T04:33:19.629Z,7.10
2023-03-13T04:43:25.495Z,7.80
2023-03-13T04:53:31.098Z,7.00
2023-03-13T05:03:36.651Z,7.60
2023-03-13T05:13:42.552Z,8.00
2023-03-13T05:23:48.220Z,9.90
2023-03-13T05:33:54.253Z,10.10
2023-03-13T05:43:59.858Z,9.70
2023-03-13T05:54:05.821Z,7.20
2023-03-13T06:04:11.770Z,7.80
2023-03-13T06:14:17.561Z,6.70
2023-03-13T06:24:23.284Z,7.40
2023-03-13T06:34:29.003Z,8.60
2023-03-13T06:44:34.740Z,8.00
2023-03-13T06:54:40.578Z,6.10
2023-03-13T07:04:46.941Z,6.70
2023-03-13T07:14:52.559Z,7.10
2023-03-13T07:24:58.241Z,6.10
2023-03-13T07:35:04.789Z,6.80
2023-03-13T07:45:12.140Z,5.50
2023-03-13T07:55:18.054Z,6.00
2023-03-13T08:05:23.968Z,7.50
2023-03-13T08:15:29.982Z,5.90
2023-03-13T08:25:35.959Z,5.40
2023-03-13T08:35:41.622Z,4.40
2023-03-13T08:45:47.269Z,5.30
2023-03-13T08:55:56.795Z,4.70
2023-03-13T09:06:03.341Z,5.30
2023-03-13T09:16:11.292Z,5.10
2023-03-13T09:26:18.115Z,6.00
2023-03-13T09:36:25.026Z,4.70
2023-03-13T09:46:37.629Z,3.70
2023-03-13T09:56:46.361Z,4.40
2023-03-13T10:06:52.202Z,5.10
2023-03-13T10:17:07.495Z,3.80
2023-03-13T10:27:15.393Z,4.40
2023-03-13T10:37:24.253Z,3.30
2023-03-13T10:47:33.783Z,3.60
2023-03-13T10:57:44.465Z,3.30
2023-03-13T11:07:50.400Z,3.60
2023-03-13T11:18:04.199Z,3.80
2023-03-13T11:28:22.577Z,4.00
2023-03-13T11:38:33.921Z,2.60
2023-03-13T11:48:51.697Z,4.90
2023-03-13T11:59:17.725Z,4.50
2023-03-13T12:09:31.691Z,4.90
2023-03-13T12:19:43.920Z,4.00
2023-03-13T12:29:54.601Z,4.30
2023-03-13T12:40:07.232Z,3.80
2023-03-13T12:50:25.218Z,5.60
2023-03-13T13:00:34.249Z,4.60
2023-03-13T13:10:42.112Z,5.00
2023-03-13T13:21:11.983Z,5.70
2023-03-13T13:31:57.037Z,5.10
2023-03-13T13:42:23.020Z,3.90
2023-03-13T13:52:39.787Z,4.00
2023-03-13T14:02:53.273Z,3.20
2023-03-13T14:13:00.862Z,3.00
2023-03-13T14:23:08.668Z,2.60
2023-03-13T14:33:14.746Z,3.60
2023-03-13T14:43:32.456Z,4.50
2023-03-13T14:53:38.330Z,4.60
2023-03-13T15:03:47.569Z,3.00
2023-03-13T15:13:53.271Z,3.80
2023-03-13T15:24:02.751Z,4.90
2023-03-13T15:34:13.740Z,4.70
2023-03-13T15:44:19.375Z,4.30
2023-03-13T15:54:26.477Z,4.90
2023-03-13T16:04:33.118Z,5.80
2023-03-13T16:14:40.257Z,3.40
2023-03-13T16:24:45.923Z,4.70
2023-03-13T16:34:51.757Z,4.80
2023-03-13T16:44:57.343Z,4.00
2023-03-13T16:55:02.989Z,5.10
2023-03-13T17:05:09.483Z,5.00
2023-03-13T17:15:15.629Z,5.80
2023-03-13T17:25:21.648Z,11.10
2023-03-13T17:35:27.297Z,10.50
2023-03-13T17:45:36.909Z,7.40
2023-03-13T17:55:42.621Z,5.80
2023-03-13T18:05:48.756Z,6.90
2023-03-13T18:15:57.302Z,7.20
2023-03-13T18:26:03.109Z,7.60
2023-03-13T18:36:18.624Z,8.10
2023-03-13T18:46:27.953Z,6.00
2023-03-13T18:56:34.588Z,7.20
2023-03-13T19:06:40.544Z,6.70
2023-03-13T19:16:50.280Z,7.40
2023-03-13T19:26:59.294Z,5.30
2023-03-13T19:37:04.958Z,7.20
2023-03-13T19:47:16.543Z,6.20
2023-03-13T19:57:22.732Z,5.50
2023-03-13T20:07:28.938Z,5.70
2023-03-13T20:17:34.887Z,6.30
2023-03-13T20:27:40.729Z,5.60
2023-03-13T20:37:46.461Z,4.00
2023-03-13T20:47:55.078Z,4.30
2023-03-13T20:58:01.204Z,4.70
2023-03-13T21:08:07.627Z,5.20
2023-03-13T21:18:13.628Z,4.20
2023-03-13T21:28:19.230Z,4.20
2023-03-13T21:38:25.038Z,4.00
2023-03-13T21:48:30.912Z,3.90
2023-03-13T21:58:36.858Z,4.80
2023-03-13T22:08:42.681Z,4.00
2023-03-13T22:18:48.559Z,4.90
2023-03-13T22:28:54.440Z,6.00
2023-03-13T22:39:00.275Z,4.20
2023-03-13T22:49:05.991Z,3.80
2023-03-13T22:59:11.615Z,4.40
2023-03-13T23:09:17.599Z,3.10
2023-03-13T23:19:23.440Z,3.60
2023-03-13T23:29:29.189Z,4.00
2023-03-13T23:39:35.013Z,2.80
2023-03-13T23:49:41.148Z,3.20
2023-03-13T23:59:46.971Z,3.80
